• Join FlightAware (Why Join?)
  • Login
  • US Flag GB Flag 
12:19 EST


 

Airport Tracker/Info


-or-


 

Live Flight TrackerFlight Track Log ✈ JBU216 ✈ 20-Apr-2013 ✈ KLGB - KJFK

Flight Track Log - Related Links

Times and Time Zones

All times are in EDT time to prevent confusion due to time zone crossing. See the JBU216 flight status page for this flight to view local times or setup timezone preferences in your user account.

Time Position Orientation Groundspeed Altitude Reporting Facility
EDT Latitude Longitude Course Direction KTS MPH feet Rate Location/Type
00:09 33.8381 -118.1722 80° East 176 203 1,400  Level Los Angeles Center
00:10 33.8306 -118.2261 261° West 253 291 2,700 1,740 Climbing Los Angeles Center
00:11 33.7628 -118.2467 194° South 248 285 5,000 1,440 Climbing Los Angeles Center
00:12 33.5882 -118.0717 105° East  Level FlightAware Approximate
00:12 33.6931 -118.2672 194° South 250 288 5,700  Level Los Angeles Center
00:13 33.5834 -117.9198 90° East  Level FlightAware Approximate
00:13 33.6211 -118.2767 186° South 261 300 8,300  Level Los Angeles Center
00:14 33.5903 -117.7678 80° East  Level FlightAware Approximate
00:14 33.6086 -118.1969 101° East 276 318 9,800  Level Los Angeles Center
00:15 33.6308 -118.1000 75° East 301 346 11,600 1,320 Climbing Los Angeles Center
00:16 33.6311 -117.9828 90° East 348 400 12,500 1,260 Climbing Los Angeles Center
00:17 33.6311 -117.8536 90° East 381 438 14,200 1,680 Climbing Los Angeles Center
00:18 33.6322 -117.7208 89° East 397 457 16,000 1,680 Climbing Los Angeles Center
00:19 33.6325 -117.5828 90° East 412 474 17,700 1,620 Climbing Los Angeles Center
00:20 33.6328 -117.4425 90° East 421 484 19,300 1,440 Climbing Los Angeles Center
00:21 33.6325 -117.2978 90° East 432 497 20,700 1,500 Climbing Los Angeles Center
00:22 33.6333 -117.1208 90° East 443 510 22,400 1,320 Climbing Los Angeles Center
00:23 33.6322 -116.9683 90° East 455 524 23,500 1,080 Climbing Los Angeles Center
00:24 33.6317 -116.8169 90° East 462 532 24,600 1,020 Climbing Los Angeles Center
00:25 33.6392 -116.6606 87° East 475 547 25,600 960 Climbing Los Angeles Center
00:26 33.6792 -116.5097 72° East 471 542 26,600 840 Climbing Los Angeles Center
00:27 33.7206 -116.3564 72° East 477 549 27,300 780 Climbing Los Angeles Center
00:28 33.7639 -116.2033 71° East 480 552 28,200 780 Climbing Los Angeles Center
00:29 33.8050 -116.0428 73° East 491 565 28,900 960 Climbing Los Angeles Center
00:30 33.8469 -115.8856 72° East 494 568 30,200 1,080 Climbing Los Angeles Center
00:31 33.8886 -115.7306 72° East 489 563 31,200 840 Climbing Los Angeles Center
00:32 33.9286 -115.5764 73° East 485 558 32,000 840 Climbing Los Angeles Center
00:33 33.9697 -115.4211 72° East 485 558 33,000 840 Climbing Los Angeles Center
00:34 34.0103 -115.2683 72° East 480 552 33,800 660 Climbing Los Angeles Center
00:35 34.0478 -115.1156 73° East 476 548 34,400 540 Climbing Los Angeles Center
00:36 34.0889 -114.9625 72° East 479 551 34,900 240 Climbing Los Angeles Center
00:37 34.1292 -114.8106 72° East 476 548 35,000  Climbing Los Angeles Center
00:39 34.1761 -114.6297 73° East 472 543 35,000 -60 Level Los Angeles Center
00:40 34.2156 -114.4744 73° East 481 554 34,900  Descending Los Angeles Center
00:40 34.2450 -114.3600 73° East 476 548 35,000  Climbing Albuquerque Center
00:41 34.2853 -114.2028 73° East 484 557 35,000  Level Albuquerque Center
00:42 34.3233 -114.0483 73° East 483 556 35,000  Level Albuquerque Center
00:43 34.3622 -113.8944 73° East 481 554 35,000  Level Albuquerque Center
00:44 34.4014 -113.7389 73° East 483 556 35,000  Level Albuquerque Center
00:45 34.4372 -113.5883 74° East 482 555 35,000  Level Albuquerque Center
00:46 34.4767 -113.4283 73° East 483 556 35,000  Level Albuquerque Center
00:47 34.5136 -113.2731 74° East 494 568 35,000  Level Albuquerque Center
00:48 34.5508 -113.1144 74° East 495 570 35,000  Level Albuquerque Center
00:49 34.5892 -112.9569 73° East 494 568 35,000  Level Albuquerque Center
00:50 34.6267 -112.8008 74° East 490 564 35,000  Level Albuquerque Center
00:51 34.6642 -112.6425 74° East 490 564 35,000  Level Albuquerque Center
00:52 34.7019 -112.4828 74° East 494 568 35,000  Level Albuquerque Center
00:53 34.7389 -112.3194 75° East 494 568 35,000  Level Albuquerque Center
00:54 34.7819 -112.1336 74° East 493 567 35,000  Level Albuquerque Center
00:55 34.8181 -111.9714 75° East 498 573 35,000  Level Albuquerque Center
00:56 34.8553 -111.8083 74° East 502 578 35,000  Level Albuquerque Center
00:57 34.8867 -111.6669 75° East 501 577 35,000  Level Albuquerque Center
00:58 34.9228 -111.5028 75° East 501 577 35,000  Level Albuquerque Center
00:59 34.9597 -111.3389 75° East 501 577 35,000  Level Albuquerque Center
01:00 34.9950 -111.1744 75° East 502 578 35,000  Level Albuquerque Center
01:01 35.0308 -111.0100 75° East 502 578 35,000  Level Albuquerque Center
01:02 35.0744 -110.8103 75° East 501 577 35,000  Level Albuquerque Center
01:03 35.1100 -110.6556 74° East 499 574 35,000  Level Albuquerque Center
01:04 35.1422 -110.4989 76° East 497 572 35,000  Level Albuquerque Center
01:05 35.1761 -110.3436 75° East 496 571 35,000  Level Albuquerque Center
01:06 35.2147 -110.1628 75° East 495 570 35,000  Level Albuquerque Center
01:07 35.2478 -110.0067 75° East 495 570 35,000  Level Albuquerque Center
01:08 35.2808 -109.8511 75° East 495 570 35,000  Level Albuquerque Center
01:09 35.3172 -109.6644 77° East 502 578 35,000  Level Albuquerque Center
01:10 35.3492 -109.5067 76° East 503 579 35,000  Level Albuquerque Center
01:11 35.3819 -109.3472 76° East 504 580 35,000  Level Albuquerque Center
01:12 35.4194 -109.1614 76° East 505 581 35,000  Level Albuquerque Center
01:13 35.4506 -109.0017 77° East 505 581 35,000  Level Albuquerque Center
01:14 35.4833 -108.8439 76° East 503 579 35,000  Level Albuquerque Center
01:15 35.5331 -108.6661 71° East 497 572 35,000  Level Albuquerque Center
01:17 35.5742 -108.5142 72° East 494 568 35,000  Level Albuquerque Center
01:18 35.6156 -108.3631 71° East 492 566 35,000  Level Albuquerque Center
01:19 35.6558 -108.2100 72° East 493 567 35,000  Level Albuquerque Center
01:20 35.7028 -108.0319 72° East 492 566 35,000  Level Albuquerque Center
01:21 35.7428 -107.8800 72° East 490 564 35,000  Level Albuquerque Center
01:22 35.7831 -107.7258 72° East 493 567 35,000  Level Albuquerque Center
01:23 35.8306 -107.5436 72° East 500 575 35,000  Level Albuquerque Center
01:24 35.8708 -107.3903 72° East 495 570 35,000  Level Albuquerque Center
01:25 35.9106 -107.2369 72° East 493 567 35,000  Level Albuquerque Center
01:26 35.9533 -107.0731 72° East 491 565 35,000  Level Albuquerque Center
01:27 35.9953 -106.9133 72° East 489 563 35,000  Level Albuquerque Center
01:28 36.0367 -106.7500 73° East 494 568 35,100  Climbing Albuquerque Center
01:29 36.0772 -106.5897 73° East 491 565 35,000 -60 Descending Albuquerque Center
01:30 36.1172 -106.4272 73° East 492 566 35,000  Level Albuquerque Center
01:31 36.1586 -106.2664 72° East 491 565 35,000  Level Albuquerque Center
01:32 36.1989 -106.1033 73° East 494 568 35,000  Level Albuquerque Center
01:33 36.2397 -105.9417 73° East 493 567 35,000  Level Albuquerque Center
01:34 36.2761 -105.7764 75° East 496 571 35,000  Level Albuquerque Center
01:35 36.3158 -105.6150 73° East 492 566 35,000  Level Albuquerque Center
01:36 36.3586 -105.4372 73° East 489 563 35,000  Level Albuquerque Center
01:37 36.3964 -105.2753 74° East 486 559 35,000  Level Albuquerque Center
01:38 36.4283 -105.1422 73° East 482 555 35,000  Level Albuquerque Center
01:39 36.4661 -104.9803 74° East 481 554 35,000  Level Albuquerque Center
01:40 36.5083 -104.8197 72° East 483 556 35,000  Level Albuquerque Center
01:41 36.5650 -104.6675 65° Northeast 480 552 35,000  Level Albuquerque Center
01:42 36.6214 -104.5156 65° Northeast 479 551 35,000  Level Albuquerque Center
01:43 36.6783 -104.3583 66° East 482 555 35,100  Climbing Albuquerque Center
01:44 36.7319 -104.2119 65° Northeast 485 558 35,000  Descending Albuquerque Center
01:45 36.7931 -104.0425 66° East 484 557 35,100  Climbing Albuquerque Center
01:46 36.8447 -103.8992 66° East 479 551 35,000 -60 Descending Albuquerque Center
01:47 36.8961 -103.7553 66° East 476 548 35,000  Level Albuquerque Center
01:48 36.9556 -103.5892 66° East 474 545 35,000  Level Albuquerque Center
01:49 37.0069 -103.4439 66° East 476 548 35,000  Level Albuquerque Center
01:50 37.0578 -103.2983 66° East 480 552 35,000  Level Albuquerque Center
01:51 37.1172 -103.1289 66° East 479 551 35,100  Climbing Albuquerque Center
01:52 37.1675 -102.9839 66° East 477 549 35,000 -60 Descending Albuquerque Center
01:53 37.2192 -102.8383 66° East 478 550 35,000  Level Albuquerque Center
01:54 37.2769 -102.6672 67° East 478 550 35,000  Level Albuquerque Center
01:55 37.3281 -102.5203 66° East 478 550 35,000  Level Albuquerque Center
01:56 37.3783 -102.3731 67° East 479 551 35,000  Level Albuquerque Center
01:57 37.4294 -102.2208 67° East 478 550 35,000  Level Albuquerque Center
01:58 37.4869 -102.0492 67° East 476 548 35,000  Level Albuquerque Center
01:59 37.5356 -101.9011 67° East 478 550 35,000  Level Albuquerque Center
01:59 37.5500 -101.8506 70° East 477 549 35,000  Level Kansas City Center
02:00 37.6003 -101.7011 67° East 481 554 35,000  Level Kansas City Center
02:01 37.6497 -101.5517 67° East 482 555 35,000  Level Kansas City Center
02:02 37.6992 -101.4019 67° East 481 554 35,000  Level Kansas City Center
02:03 37.7561 -101.2283 67° East 480 552 35,100  Climbing Kansas City Center
02:04 37.8039 -101.0792 68° East 475 547 35,000 -60 Descending Kansas City Center
02:05 37.8522 -100.9306 68° East 472 543 35,000  Level Kansas City Center
02:06 37.9008 -100.7811 68° East 473 544 35,000  Level Kansas City Center
02:07 37.9489 -100.6336 68° East 472 543 35,000  Level Kansas City Center
02:08 38.0072 -100.4642 66° East 469 540 35,000  Level Kansas City Center
02:09 38.0561 -100.3164 67° East 472 543 35,000  Level Kansas City Center
02:10 38.1053 -100.1692 67° East 472 543 35,000  Level Kansas City Center
02:11 38.1536 -100.0203 68° East 476 548 35,000  Level Kansas City Center
02:12 38.2117 -99.8492 67° East 473 544 35,000  Level Kansas City Center
02:13 38.2611 -99.6997 67° East 476 548 35,000  Level Kansas City Center
02:14 38.3094 -99.5506 68° East 477 549 35,000  Level Kansas City Center
02:15 38.3581 -99.4050 67° East 475 547 35,000  Level Kansas City Center
02:16 38.4092 -99.2489 67° East 477 549 35,000  Level Kansas City Center
02:17 38.4597 -99.0917 68° East 478 550 35,000  Level Kansas City Center
02:18 38.5094 -98.9361 68° East 474 545 35,000  Level Kansas City Center
02:19 38.5628 -98.7772 67° East 486 559 35,000  Level Kansas City Center
02:20 38.6119 -98.6239 68° East 469 540 35,000  Level Kansas City Center
02:21 38.6614 -98.4697 68° East 468 539 35,000  Level Kansas City Center
02:22 38.7092 -98.3144 68° East 468 539 35,000  Level Kansas City Center
02:23 38.7581 -98.1614 68° East 462 532 35,000  Level Kansas City Center
02:24 38.8064 -98.0064 68° East 466 536 35,000  Level Kansas City Center
02:25 38.8608 -97.8331 68° East 464 534 35,000  Level Kansas City Center
02:26 38.9014 -97.7011 68° East 464 534 35,000  Level Kansas City Center
02:27 38.9597 -97.5322 66° East 464 534 35,000  Level Kansas City Center
02:28 39.0175 -97.3925 62° Northeast 462 532 35,000  Level Kansas City Center
02:29 39.0731 -97.2514 63° Northeast 462 532 35,000  Level Kansas City Center
02:31 39.1686 -97.0150 62° Northeast 466 536 35,000  Level Kansas City Center
02:32 39.2356 -96.8464 63° Northeast 470 541 35,000  Level Kansas City Center
02:33 39.2911 -96.7025 63° Northeast 469 540 35,000  Level Kansas City Center
02:34 39.3472 -96.5589 63° Northeast 468 539 35,000  Level Kansas City Center
02:35 39.4031 -96.4128 64° Northeast 470 541 35,000  Level Kansas City Center
02:36 39.4611 -96.2619 63° Northeast 469 540 35,000  Level Kansas City Center
02:37 39.5211 -96.0994 64° Northeast 467 537 35,000  Level Kansas City Center
02:38 39.5772 -95.9531 64° Northeast 470 541 35,000  Level Kansas City Center
02:39 39.6333 -95.8064 64° Northeast 474 545 35,000  Level Kansas City Center
02:40 39.6978 -95.6333 64° Northeast 474 545 35,000  Level Kansas City Center
02:41 39.7514 -95.4875 64° Northeast 467 537 35,000  Level Kansas City Center
02:42 39.8056 -95.3422 64° Northeast 464 534 35,000  Level Kansas City Center
02:43 39.8597 -95.1967 64° Northeast 464 534 35,000  Level Kansas City Center
02:44 39.9219 -95.0269 64° Northeast 462 532 35,000  Level Kansas City Center
02:45 39.9747 -94.8833 64° Northeast 459 528 35,000  Level Kansas City Center
02:46 40.0242 -94.7347 66° East 463 533 35,000  Level Kansas City Center
02:47 40.0742 -94.5858 66° East 466 536 35,000  Level Kansas City Center
02:48 40.1325 -94.4114 66° East 467 537 35,000  Level Kansas City Center
02:49 40.1828 -94.2619 66° East 469 540 35,000  Level Kansas City Center
02:50 40.2331 -94.1097 67° East 473 544 35,000  Level Kansas City Center
02:51 40.2803 -93.9636 67° East 470 541 35,000  Level Kansas City Center
02:52 40.3328 -93.8081 66° East 469 540 35,000  Level Kansas City Center
02:53 40.3839 -93.6497 67° East 473 544 35,000  Level Kansas City Center
02:54 40.4369 -93.4936 66° East 473 544 35,000  Level Kansas City Center
02:55 40.4892 -93.3353 67° East 473 544 35,000  Level Kansas City Center
02:56 40.5389 -93.1758 68° East 473 544 35,000  Level Kansas City Center
02:57 40.5964 -92.9997 67° East 472 543 35,000  Level Kansas City Center
02:58 40.6431 -92.8569 67° East 474 545 35,000  Level Kansas City Center
02:59 40.6950 -92.6950 67° East 477 549 35,000  Level Kansas City Center
03:00 40.7556 -92.4997 68° East 478 550 35,000  Level Chicago Center
03:01 40.8067 -92.3392 67° East 475 547 35,000  Level Chicago Center
03:02 40.8575 -92.1781 67° East 476 548 35,000  Level Chicago Center
03:03 40.9072 -92.0164 68° East 476 548 35,000  Level Chicago Center
03:04 40.9561 -91.8558 68° East 475 547 35,000  Level Chicago Center
03:05 41.0058 -91.6900 68° East 479 551 35,000  Level Chicago Center
03:06 41.0572 -91.5250 68° East 483 556 35,000  Level Chicago Center
03:07 41.1081 -91.3597 68° East 484 557 35,000  Level Chicago Center
03:08 41.1567 -91.1958 68° East 478 550 35,000  Level Chicago Center
03:09 41.2061 -91.0286 68° East 483 556 35,000  Level Chicago Center
03:10 41.2547 -90.8633 69° East 481 554 35,000  Level Chicago Center
03:11 41.3039 -90.6972 68° East 481 554 35,000  Level Chicago Center
03:12 41.3350 -90.5228 77° East 482 555 35,000  Level Chicago Center
03:13 41.3528 -90.3453 82° East 482 555 35,000  Level Chicago Center
03:14 41.3703 -90.1653 83° East 487 560 35,000  Level Chicago Center
03:15 41.3892 -89.9836 82° East 491 565 35,000  Level Chicago Center
03:16 41.4047 -89.8389 82° East 491 565 35,000  Level Chicago Center
03:17 41.4231 -89.6603 82° East 488 562 35,000  Level Chicago Center
03:18 41.4406 -89.4819 82° East 482 555 35,000  Level Chicago Center
03:19 41.4578 -89.3039 83° East 482 555 35,000  Level Chicago Center
03:20 41.4764 -89.0964 83° East 483 556 35,000  Level Chicago Center
03:21 41.4931 -88.9178 83° East 487 560 35,000  Level Chicago Center
03:22 41.5092 -88.7378 83° East 489 563 35,000  Level Chicago Center
03:23 41.5256 -88.5589 83° East 488 562 35,000  Level Chicago Center
03:24 41.5411 -88.3800 83° East 486 559 35,000  Level Chicago Center
03:25 41.5581 -88.1983 83° East 488 562 35,000  Level Chicago Center
03:26 41.5825 -88.0169 80° East 487 560 35,000  Level Chicago Center
03:27 41.5997 -87.8717 81° East 489 563 35,000  Level Chicago Center
03:28 41.6200 -87.6903 81° East 491 565 35,000  Level Chicago Center
03:29 41.6400 -87.5094 82° East 492 566 35,000  Level Chicago Center
03:30 41.6608 -87.3286 81° East 494 568 35,000  Level Chicago Center
03:31 41.6808 -87.1458 82° East 494 568 35,000  Level Chicago Center
03:32 41.7011 -86.9664 81° East 487 560 35,000  Level Chicago Center
03:33 41.7236 -86.7500 82° East 486 559 35,000  Level Chicago Center
03:34 41.7403 -86.5928 82° East 492 566 35,000  Level Chicago Center
03:35 41.7589 -86.4136 82° East 486 559 35,000  Level Chicago Center
03:36 41.7767 -86.2319 82° East 490 564 35,000  Level Chicago Center
03:37 41.7750 -86.0456 91° East 498 573 35,000  Level Chicago Center
03:38 41.7744 -85.8619 90° East 495 570 35,000  Level Chicago Center
03:39 41.7736 -85.6781 90° East 492 566 35,000  Level Chicago Center
03:40 41.7725 -85.4886 90° East 498 573 35,000  Level Chicago Center
03:41 41.7700 -85.2983 91° East 495 570 35,000  Level Chicago Center
03:42 41.7692 -85.1103 90° East 499 574 35,000  Level Chicago Center
03:43 41.7681 -84.9603 91° East 495 570 35,000  Level Cleveland Center
03:44 41.7664 -84.7764 91° East 495 570 35,000  Level Cleveland Center
03:45 41.7628 -84.5894 91° East 495 570 35,000  Level Cleveland Center
03:46 41.7628 -84.4056 90° East 495 570 35,000 180 Level Cleveland Center
03:47 41.7528 -84.2017 94° East 495 570 35,400 420 Climbing Cleveland Center
03:48 41.7478 -84.0206 92° East 495 570 35,900 300 Climbing Cleveland Center
03:49 41.7450 -83.8339 91° East 500 575 36,000  Climbing Cleveland Center
03:50 41.7397 -83.6444 92° East 500 575 36,000  Level Cleveland Center
03:51 41.7364 -83.4578 91° East 500 575 36,000  Level Cleveland Center
03:52 41.7306 -83.2683 92° East 500 575 36,000  Level Cleveland Center
03:53 41.7242 -83.0817 93° East 500 575 36,000  Level Cleveland Center
03:54 41.7200 -82.8922 92° East 500 575 36,000  Level Cleveland Center
03:55 41.7131 -82.7056 93° East 500 575 36,000  Level Cleveland Center
03:56 41.7061 -82.5161 93° East 500 575 36,000  Level Cleveland Center
03:57 41.7006 -82.3297 92° East 500 575 36,000  Level Cleveland Center
03:58 41.6931 -82.1403 93° East 500 575 36,000  Level Cleveland Center
03:59 41.6869 -81.9511 92° East 506 582 36,000  Level Cleveland Center
04:00 41.6808 -81.7592 92° East 506 582 36,000  Level Cleveland Center
04:01 41.6742 -81.5700 93° East 511 588 36,000  Level Cleveland Center
04:02 41.6672 -81.3975 93° East 517 595 36,000  Level Cleveland Center
04:03 41.6561 -81.2083 94° East 512 589 36,000  Level Cleveland Center
04:04 41.6486 -81.0167 93° East 520 598 36,000  Level Cleveland Center
04:05 41.6492 -80.8222 90° East 520 598 36,000  Level Cleveland Center
04:06 41.6661 -80.6081 84° East 528 608 36,000  Level Cleveland Center
04:07 41.6847 -80.4136 83° East 528 608 36,000  Level Cleveland Center
04:08 41.6989 -80.2133 85° East 533 613 36,000  Level Cleveland Center
04:09 41.7147 -80.0183 84° East 533 613 36,000  Level Cleveland Center
04:10 41.7303 -79.8208 84° East 539 620 36,000  Level Cleveland Center
04:11 41.7417 -79.6619 84° East 539 620 36,000  Level Cleveland Center
04:12 41.7603 -79.4253 84° East 534 615 36,000  Level Cleveland Center
04:13 41.7769 -79.2300 83° East 534 615 36,000  Level Cleveland Center
04:14 41.7911 -79.0319 84° East 534 615 36,000  Level Cleveland Center
04:15 41.8028 -78.8367 85° East 534 615 36,000  Level Cleveland Center
04:16 41.8164 -78.6383 85° East 534 615 36,000  Level Cleveland Center
04:17 41.8294 -78.4431 85° East 534 615 36,000  Level Cleveland Center
04:18 41.8403 -78.2447 86° East 539 620 36,000  Level Cleveland Center
04:19 41.8550 -77.9750 86° East 549 632 36,000  Level New York Center
04:20 41.8394 -77.7814 96° East 537 618 36,000  Level New York Center
04:21 41.7981 -77.5989 107° East 517 595 36,000  Level New York Center
04:22 41.7497 -77.4214 110° East 511 588 36,000  Level New York Center
04:23 41.7033 -77.2417 109° East 511 588 36,000  Level New York Center
04:24 41.6544 -77.0650 110° East 511 588 36,000  Level New York Center
04:25 41.6078 -76.8828 109° East 511 588 36,000  Level New York Center
04:26 41.5567 -76.7008 111° Southeast 511 588 36,000  Level New York Center
04:27 41.5142 -76.5472 110° East 506 582 36,000 -60 Level New York Center
04:28 41.4686 -76.3689 109° East 506 582 35,900 -120 Descending New York Center
04:29 41.4164 -76.1903 111° Southeast 506 582 35,800 -600 Descending New York Center
04:30 41.3639 -76.0147 112° Southeast 506 582 34,800 -1,740 Descending New York Center
04:31 41.3097 -75.8256 111° Southeast 506 582 32,300 -3,000 Descending New York Center
04:32 41.2550 -75.6392 111° Southeast 514 592 28,900 -3,480 Descending New York Center
04:33 41.1975 -75.4642 114° Southeast 514 592 25,600 -2,940 Descending New York Center
04:34 41.1394 -75.2947 114° Southeast 514 592 23,100 -1,320 Descending New York Center
04:35 41.0833 -75.1286 114° Southeast 504 580 23,000 -60 Descending New York Center
04:36 41.0267 -74.9656 115° Southeast 494 568 23,000  Level New York Center
04:37 40.9872 -74.7844 106° East 494 568 23,000 -300 Level New York Center
04:38 40.9661 -74.5989 99° East 499 574 22,400 -1,320 Descending New York Center
04:39 40.9489 -74.4194 97° East 499 574 20,500 -1,500 Descending New York Center
04:40 40.9333 -74.2667 98° East 451 519 19,700 -840 Descending New York TRACON
04:41 40.8833 -74.1333 116° Southeast 382 440 19,000 -960 Descending New York TRACON
04:42 40.8000 -74.0833 156° South 326 375 17,800 -2,220 Descending New York TRACON
04:43 40.7333 -74.0500 159° South 328 377 14,800 -3,000 Descending New York TRACON
04:44 40.6667 -74.0000 150° Southeast 309 356 12,400 -3,060 Descending New York TRACON
04:45 40.6000 -73.9667 159° South 313 360 9,300 -3,000 Descending New York TRACON
04:46 40.5500 -73.8833 128° Southeast 287 330 6,700 -2,400 Descending New York TRACON
04:47 40.5000 -73.7833 123° Southeast 277 319 4,600 -1,620 Descending New York TRACON
04:48 40.5333 -73.7167 57° Northeast 224 258 3,500 -1,320 Descending New York TRACON
04:49 40.5667 -73.6500 57° Northeast 192 221 2,200 -900 Descending New York TRACON
04:50 40.6000 -73.6667 339° North 144 166 1,800 -600 Descending New York TRACON
04:51 40.6167 -73.7000 303° West 130 150 1,100 -720 Descending New York TRACON
04:52 40.6333 -73.7500 294° West 119 137 400 -720 Descending New York TRACON